Time;durP1;ratioP1;P1;durP2;ratioP2;P2;SDS_P1;SDS_P2;PMS_P1;PMS_P2;Temp;Humidity;BMP_temperature;BMP_pressure;BME280_temperature;BME280_humidity;BME280_pressure;Samples;Min_cycle;Max_cycle;Signal;HPM_P1;HPM_P2
2021/03/13 00:00:27;;;;;;;12.97;3.10;;;7.60;91.40;;;;;;4954112;28;20377;-83
2021/03/13 00:02:53;;;;;;;14.17;2.80;;;7.60;91.40;;;;;;4956067;28;20051;-83
2021/03/13 00:05:25;;;;;;;10.07;2.67;;;7.60;91.40;;;;;;4954452;28;20540;-83
2021/03/13 00:07:51;;;;;;;12.20;3.60;;;7.60;91.50;;;;;;4954377;29;20031;-84
2021/03/13 00:10:17;;;;;;;15.40;3.43;;;7.70;91.50;;;;;;4954999;28;20027;-83
2021/03/13 00:12:43;;;;;;;11.23;3.30;;;7.60;91.50;;;;;;5037963;23;20461;-84
2021/03/13 00:15:13;;;;;;;17.57;3.63;;;7.60;91.50;;;;;;5031482;28;20041;-84
2021/03/13 00:17:39;;;;;;;14.37;2.83;;;7.60;91.50;;;;;;5031951;28;20108;-84
2021/03/13 00:20:05;;;;;;;12.47;2.83;;;7.60;91.50;;;;;;5031032;28;20118;-82
2021/03/13 00:22:31;;;;;;;13.07;2.07;;;7.60;91.70;;;;;;5019291;28;20029;-82
2021/03/13 00:24:57;;;;;;;17.00;2.70;;;7.60;91.40;;;;;;5015854;28;20393;-83
2021/03/13 00:27:22;;;;;;;13.93;3.00;;;7.60;91.50;;;;;;5016329;28;20056;-82
2021/03/13 00:29:48;;;;;;;10.53;2.97;;;7.60;91.40;;;;;;5013835;28;20042;-82
2021/03/13 00:32:13;;;;;;;13.00;3.67;;;7.60;91.60;;;;;;5015389;28;20362;-81
2021/03/13 00:34:39;;;;;;;14.17;3.23;;;7.60;91.70;;;;;;5015610;28;20486;-82
2021/03/13 00:37:05;;;;;;;13.23;2.87;;;7.60;91.80;;;;;;5015726;28;20014;-83
2021/03/13 00:39:30;;;;;;;10.87;2.67;;;7.60;91.80;;;;;;5013333;28;20502;-81
2021/03/13 00:41:56;;;;;;;13.43;3.10;;;7.60;91.80;;;;;;5014595;28;20060;-81
2021/03/13 00:44:22;;;;;;;13.13;2.90;;;7.60;92.00;;;;;;5014234;28;20026;-81
2021/03/13 00:46:47;;;;;;;14.40;3.13;;;7.60;92.20;;;;;;5014123;28;20114;-81
2021/03/13 00:49:13;;;;;;;18.37;3.13;;;7.60;92.20;;;;;;5013981;28;20379;-82
2021/03/13 00:51:39;;;;;;;10.47;2.20;;;7.60;92.20;;;;;;5013656;28;20029;-82
2021/03/13 00:54:04;;;;;;;10.43;2.00;;;7.60;92.30;;;;;;5014528;28;20419;-81
2021/03/13 00:56:30;;;;;;;7.07;2.07;;;7.60;92.30;;;;;;5013759;28;20037;-81
2021/03/13 00:58:56;;;;;;;10.70;1.90;;;7.60;92.50;;;;;;5013192;28;20119;-82
2021/03/13 01:01:21;;;;;;;10.90;1.90;;;7.60;92.60;;;;;;5013761;28;20022;-83
2021/03/13 01:03:47;;;;;;;8.37;2.17;;;7.60;92.70;;;;;;5013672;28;20532;-82
2021/03/13 01:06:12;;;;;;;9.27;2.03;;;7.60;93.00;;;;;;5013368;28;20509;-81
2021/03/13 01:08:38;;;;;;;8.97;1.67;;;7.60;93.30;;;;;;5013699;28;20030;-82
2021/03/13 01:11:04;;;;;;;9.53;1.90;;;7.50;93.20;;;;;;5012648;28;20037;-82
2021/03/13 01:13:29;;;;;;;9.23;2.00;;;7.60;93.60;;;;;;5014089;28;20026;-81
2021/03/13 01:15:55;;;;;;;10.33;1.80;;;7.50;93.70;;;;;;5012459;28;20033;-81
2021/03/13 01:18:21;;;;;;;8.93;2.00;;;7.50;93.90;;;;;;5012617;28;20026;-82
2021/03/13 01:20:49;;;;;;;11.70;1.90;;;7.50;94.40;;;;;;5012968;28;20105;-82
2021/03/13 01:23:15;;;;;;;14.20;2.17;;;7.50;94.00;;;;;;5012183;28;20029;-82
2021/03/13 01:25:41;;;;;;;8.27;2.20;;;7.50;93.90;;;;;;5013776;28;20343;-81
2021/03/13 01:28:07;;;;;;;10.13;2.23;;;7.50;94.10;;;;;;5013875;28;20029;-81
2021/03/13 01:30:33;;;;;;;9.30;2.40;;;7.50;94.20;;;;;;5011743;28;20022;-83
2021/03/13 01:32:58;;;;;;;13.37;4.37;;;7.40;94.60;;;;;;5012506;28;20044;-83
2021/03/13 01:35:27;;;;;;;8.47;2.10;;;7.40;95.00;;;;;;5013028;28;20475;-83
2021/03/13 01:37:54;;;;;;;6.65;1.90;;;7.40;95.30;;;;;;5013561;28;20108;-83
2021/03/13 01:40:21;;;;;;;7.80;1.80;;;7.40;95.30;;;;;;5012671;28;20034;-81
2021/03/13 01:42:48;;;;;;;8.17;1.87;;;7.40;95.40;;;;;;5012841;28;20033;-82
2021/03/13 01:45:23;;;;;;;7.20;2.20;;;7.40;95.40;;;;;;5013189;28;20129;-81
2021/03/13 01:47:50;;;;;;;7.73;2.27;;;7.40;95.60;;;;;;5013577;28;20017;-81
2021/03/13 01:50:17;;;;;;;8.13;2.30;;;7.30;95.80;;;;;;5010701;28;20030;-81
2021/03/13 01:52:48;;;;;;;5.93;2.00;;;7.30;95.90;;;;;;5012921;28;20080;-91
2021/03/13 01:55:15;;;;;;;7.33;2.20;;;7.30;96.00;;;;;;5012281;28;20518;-91
2021/03/13 01:57:41;;;;;;;9.23;2.40;;;7.20;96.10;;;;;;5011672;28;20026;-84
2021/03/13 02:00:12;;;;;;;9.03;2.33;;;7.20;96.40;;;;;;5011299;28;20022;-81
2021/03/13 02:02:38;;;;;;;9.03;2.67;;;7.20;96.50;;;;;;5013532;28;20033;-81
2021/03/13 02:05:38;;;;;;;7.73;2.60;;;7.20;96.60;;;;;;5013062;28;20141;-81
2021/03/13 02:08:35;;;;;;;12.83;3.83;;;7.20;96.70;;;;;;5013537;28;20470;-81
2021/03/13 02:11:25;;;;;;;8.67;2.90;;;7.20;96.70;;;;;;5012274;28;20026;-82
2021/03/13 02:14:07;;;;;;;5.90;2.23;;;7.20;96.90;;;;;;5013191;28;20100;-81
2021/03/13 02:16:59;;;;;;;7.17;2.83;;;7.10;96.90;;;;;;5012717;28;20339;-82
2021/03/13 02:19:42;;;;;;;13.70;3.10;;;7.10;97.10;;;;;;5012601;28;20161;-81
2021/03/13 02:22:12;;;;;;;6.90;2.87;;;7.10;97.10;;;;;;5012150;28;20029;-82
2021/03/13 02:24:56;;;;;;;;;;;7.10;97.20;;;;;;5013148;28;20561;-83
2021/03/13 02:27:25;;;;;;;7.40;2.73;;;7.10;97.10;;;;;;5012664;28;20024;-83
2021/03/13 02:30:00;;;;;;;5.85;2.47;;;7.10;97.30;;;;;;5012097;28;20045;-81
2021/03/13 02:32:54;;;;;;;7.90;2.70;;;7.00;97.00;;;;;;5012338;28;20068;-83
2021/03/13 02:35:43;;;;;;;7.43;2.50;;;7.10;97.50;;;;;;5012695;28;20025;-82
2021/03/13 02:38:13;;;;;;;8.57;2.72;;;7.00;97.40;;;;;;5012555;28;20028;-82
2021/03/13 02:40:43;;;;;;;5.83;2.67;;;7.00;97.20;;;;;;5011788;28;20026;-81
2021/03/13 02:43:11;;;;;;;6.00;2.47;;;7.00;97.30;;;;;;5010964;28;20081;-82
2021/03/13 02:45:41;;;;;;;6.23;2.47;;;7.00;97.50;;;;;;5011048;28;20216;-81
2021/03/13 02:48:10;;;;;;;8.00;2.80;;;6.90;97.10;;;;;;5012316;28;20052;-81
2021/03/13 02:50:37;;;;;;;5.97;2.70;;;6.90;97.40;;;;;;5012006;28;20109;-81
2021/03/13 02:53:05;;;;;;;7.57;2.50;;;6.90;97.30;;;;;;5012108;28;20041;-83
2021/03/13 02:55:32;;;;;;;5.97;2.33;;;7.00;97.30;;;;;;5012109;28;20029;-83
2021/03/13 02:58:00;;;;;;;5.93;2.20;;;6.90;97.30;;;;;;5012225;28;20438;-82
2021/03/13 03:00:29;;;;;;;8.77;3.23;;;7.00;97.50;;;;;;5009840;28;20022;-82
2021/03/13 03:02:57;;;;;;;5.63;2.38;;;6.90;97.30;;;;;;5010527;28;20038;-83
2021/03/13 03:05:25;;;;;;;5.77;2.60;;;7.00;97.50;;;;;;5012360;28;20033;-83
2021/03/13 03:07:53;;;;;;;5.17;2.30;;;7.00;97.50;;;;;;5012740;28;20105;-82
2021/03/13 03:10:21;;;;;;;4.60;1.93;;;7.00;97.50;;;;;;5011922;28;20030;-83
2021/03/13 03:12:49;;;;;;;5.63;2.70;;;7.00;97.30;;;;;;5010641;28;20109;-84
2021/03/13 03:15:17;;;;;;;4.90;2.27;;;7.00;97.40;;;;;;5012320;28;20490;-83
2021/03/13 03:17:45;;;;;;;5.07;1.90;;;7.00;97.60;;;;;;5011850;28;20087;-83
2021/03/13 03:20:12;;;;;;;5.07;1.90;;;7.00;97.60;;;;;;5011393;28;20037;-81
2021/03/13 03:22:38;;;;;;;6.83;2.20;;;7.00;97.60;;;;;;5012129;28;20434;-81
2021/03/13 03:25:07;;;;;;;3.73;1.90;;;7.00;97.70;;;;;;5011999;28;20073;-82
2021/03/13 03:27:33;;;;;;;4.87;1.93;;;7.00;97.70;;;;;;5012586;28;20028;-82
2021/03/13 03:29:59;;;;;;;3.57;1.80;;;7.00;97.70;;;;;;5010325;28;20041;-82
2021/03/13 03:32:25;;;;;;;6.63;1.80;;;7.00;97.70;;;;;;5011466;28;20402;-82
2021/03/13 03:34:50;;;;;;;3.57;1.67;;;7.00;97.60;;;;;;5012130;28;20026;-82
2021/03/13 03:37:16;;;;;;;4.63;1.93;;;6.90;97.70;;;;;;5012034;28;20018;-82
2021/03/13 03:39:42;;;;;;;4.80;1.67;;;6.90;97.80;;;;;;5011709;28;20029;-82
2021/03/13 03:42:09;;;;;;;4.53;1.70;;;6.90;97.80;;;;;;5011456;28;20029;-83
2021/03/13 03:44:41;;;;;;;4.43;1.67;;;7.00;97.90;;;;;;5012068;28;20026;-83
2021/03/13 03:47:09;;;;;;;4.27;1.60;;;7.00;97.80;;;;;;5011797;28;20033;-82
2021/03/13 03:49:37;;;;;;;3.47;1.50;;;7.00;97.70;;;;;;5012022;28;20026;-82
2021/03/13 03:52:04;;;;;;;3.33;1.17;;;7.00;97.70;;;;;;5012568;28;20025;-83
2021/03/13 03:54:35;;;;;;;2.87;1.40;;;7.10;97.60;;;;;;5013844;28;20022;-82
2021/03/13 03:57:01;;;;;;;3.07;1.20;;;7.10;97.60;;;;;;5012139;28;20014;-83
2021/03/13 03:59:28;;;;;;;5.47;1.33;;;7.10;97.60;;;;;;5012319;28;20046;-83
2021/03/13 04:01:54;;;;;;;4.23;1.40;;;7.10;97.60;;;;;;5012094;28;20438;-84
2021/03/13 04:04:24;;;;;;;5.77;1.50;;;7.00;97.80;;;;;;5011511;28;20025;-81
2021/03/13 04:06:52;;;;;;;3.90;1.40;;;7.10;97.70;;;;;;5008553;28;20457;-81
2021/03/13 04:09:24;;;;;;;3.23;1.17;;;7.10;97.70;;;;;;5010733;28;20033;-82
2021/03/13 04:11:51;;;;;;;6.47;1.90;;;7.10;97.60;;;;;;5009132;28;20121;-82
2021/03/13 04:14:17;;;;;;;3.93;1.13;;;7.10;97.40;;;;;;5011290;28;20025;-81
2021/03/13 04:16:44;;;;;;;3.17;1.10;;;7.10;97.70;;;;;;5010790;28;20044;-81
2021/03/13 04:19:10;;;;;;;3.00;0.97;;;7.10;97.50;;;;;;5010491;28;20076;-82
2021/03/13 04:21:36;;;;;;;4.60;1.20;;;7.10;97.50;;;;;;5010127;28;20029;-82
2021/03/13 04:24:02;;;;;;;4.03;1.03;;;7.20;97.60;;;;;;5010599;28;20169;-81
2021/03/13 04:26:30;;;;;;;3.60;1.00;;;7.10;97.70;;;;;;5010802;28;20151;-82
2021/03/13 04:28:55;;;;;;;4.73;1.20;;;7.10;97.60;;;;;;5010099;28;20033;-83
2021/03/13 04:31:30;;;;;;;2.80;1.07;;;7.10;97.70;;;;;;5010200;28;20030;-82
2021/03/13 04:33:58;;;;;;;2.47;0.90;;;7.10;97.50;;;;;;5008811;28;20025;-81
2021/03/13 04:36:30;;;;;;;5.13;1.00;;;7.10;97.70;;;;;;5010234;28;20079;-81
2021/03/13 04:38:58;;;;;;;4.30;1.10;;;7.10;97.80;;;;;;5008461;28;20022;-82
2021/03/13 04:41:26;;;;;;;3.70;0.83;;;7.20;97.80;;;;;;5008787;28;20404;-81
2021/03/13 04:43:52;;;;;;;5.90;1.13;;;7.10;97.80;;;;;;5010574;28;20033;-81
2021/03/13 04:46:20;;;;;;;5.17;1.10;;;7.20;97.80;;;;;;5010702;28;20038;-81
2021/03/13 04:48:46;;;;;;;6.57;1.10;;;7.10;98.10;;;;;;5008990;28;20030;-84
2021/03/13 04:51:15;;;;;;;2.43;0.90;;;7.20;97.80;;;;;;5008458;28;20372;-81
2021/03/13 04:53:41;;;;;;;4.20;1.00;;;7.20;98.00;;;;;;5009535;28;20021;-81
2021/03/13 04:56:07;;;;;;;5.07;0.90;;;7.20;98.00;;;;;;5009469;28;20022;-81
2021/03/13 04:58:34;;;;;;;2.90;0.80;;;7.30;97.90;;;;;;5010853;28;20113;-81
2021/03/13 05:01:00;;;;;;;3.33;1.00;;;7.30;98.00;;;;;;5009970;28;20025;-81
2021/03/13 05:03:25;;;;;;;6.70;1.07;;;7.30;98.00;;;;;;5010674;28;20030;-83
2021/03/13 05:05:51;;;;;;;5.83;2.10;;;7.30;97.80;;;;;;5010287;28;20060;-81
2021/03/13 05:08:16;;;;;;;4.83;1.00;;;7.30;97.90;;;;;;5011171;28;20022;-81
2021/03/13 05:10:42;;;;;;;3.67;0.97;;;7.30;97.60;;;;;;5013042;28;20037;-82
2021/03/13 05:13:08;;;;;;;4.33;1.03;;;7.40;97.60;;;;;;5013704;28;20037;-83
2021/03/13 05:15:33;;;;;;;5.20;1.10;;;7.40;97.60;;;;;;5013620;28;20196;-81
2021/03/13 05:17:59;;;;;;;5.60;0.97;;;7.40;97.70;;;;;;5013739;28;20545;-81
2021/03/13 05:20:25;;;;;;;4.43;1.00;;;7.40;97.80;;;;;;5012765;28;20033;-81
2021/03/13 05:22:51;;;;;;;3.70;1.03;;;7.40;97.70;;;;;;5013773;28;20537;-81
2021/03/13 05:25:18;;;;;;;3.07;1.07;;;7.40;97.60;;;;;;5013534;28;20052;-83
2021/03/13 05:27:44;;;;;;;4.00;1.13;;;7.40;97.40;;;;;;5012330;28;20118;-81
2021/03/13 05:30:11;;;;;;;4.10;0.80;;;7.40;97.60;;;;;;5013087;28;20037;-83
2021/03/13 05:32:37;;;;;;;5.67;1.27;;;7.40;97.80;;;;;;5013516;28;20018;-81
2021/03/13 05:35:08;;;;;;;3.23;0.80;;;7.40;97.70;;;;;;5013212;28;20044;-82
2021/03/13 05:37:35;;;;;;;2.70;0.90;;;7.40;97.90;;;;;;5013806;28;20029;-82
2021/03/13 05:40:00;;;;;;;4.80;0.83;;;7.30;97.90;;;;;;5011710;28;20076;-82
2021/03/13 05:42:27;;;;;;;4.33;0.90;;;7.30;97.90;;;;;;5013904;28;20033;-82
2021/03/13 05:44:54;;;;;;;1.63;0.70;;;7.40;97.80;;;;;;5012554;28;20070;-82
2021/03/13 05:47:21;;;;;;;5.67;0.90;;;7.30;98.00;;;;;;5013796;28;20029;-81
2021/03/13 05:50:00;;;;;;;2.53;0.80;;;7.40;98.00;;;;;;5012922;28;20022;-83
2021/03/13 05:52:32;;;;;;;3.58;0.60;;;7.40;98.10;;;;;;5013774;28;20022;-83
2021/03/13 05:54:58;;;;;;;2.30;0.70;;;7.40;97.70;;;;;;5013589;28;20478;-81
2021/03/13 05:57:24;;;;;;;1.90;0.63;;;7.40;97.90;;;;;;5012171;28;20080;-83
2021/03/13 05:59:51;;;;;;;2.50;0.60;;;7.40;97.90;;;;;;5013264;28;20470;-81
2021/03/13 06:02:18;;;;;;;1.30;0.63;;;7.40;97.90;;;;;;5013789;28;20034;-84
2021/03/13 06:04:44;;;;;;;3.80;1.07;;;7.50;97.70;;;;;;5012275;28;20034;-82
2021/03/13 06:07:18;;;;;;;2.00;0.77;;;7.50;97.80;;;;;;5013524;28;20500;-83
2021/03/13 06:09:43;;;;;;;2.27;0.60;;;7.50;97.50;;;;;;5013454;28;20048;-82
2021/03/13 06:12:09;;;;;;;4.27;0.83;;;7.50;97.40;;;;;;5023937;22;20038;-81
2021/03/13 06:14:35;;;;;;;5.73;0.70;;;7.50;97.60;;;;;;4993382;28;20455;-81
2021/03/13 06:17:01;;;;;;;4.07;0.70;;;7.50;97.10;;;;;;4994138;28;20115;-81
2021/03/13 06:19:47;;;;;;;3.43;0.97;;;7.50;97.10;;;;;;4992098;28;20029;-81
2021/03/13 06:22:32;;;;;;;2.93;0.60;;;7.60;97.20;;;;;;4992147;28;20023;-81
2021/03/13 06:25:20;;;;;;;2.77;0.90;;;7.60;97.30;;;;;;4994436;28;20030;-81
2021/03/13 06:27:59;;;;;;;4.57;2.08;;;7.60;97.10;;;;;;4994608;28;20022;-81
2021/03/13 06:30:28;;;;;;;4.40;1.20;;;7.60;97.20;;;;;;4992152;28;20078;-81
2021/03/13 06:32:54;;;;;;;4.22;0.65;;;7.70;97.40;;;;;;4993050;28;20161;-81
2021/03/13 06:35:37;;;;;;;3.07;1.23;;;7.70;96.80;;;;;;4994550;28;20077;-82
2021/03/13 06:38:18;;;;;;;2.63;0.50;;;7.70;96.80;;;;;;4994161;28;20035;-81
2021/03/13 06:40:44;;;;;;;1.70;0.50;;;7.80;96.60;;;;;;4992174;28;20038;-82
2021/03/13 06:43:27;;;;;;;2.67;0.60;;;7.80;96.40;;;;;;4992567;28;20026;-82
2021/03/13 06:46:15;;;;;;;3.47;0.50;;;7.80;96.30;;;;;;4994280;28;20491;-82
2021/03/13 06:48:44;;;;;;;3.03;1.00;;;7.80;96.30;;;;;;4995517;28;20502;-81
2021/03/13 06:51:25;;;;;;;3.67;1.23;;;7.80;96.30;;;;;;4992435;28;20030;-81
2021/03/13 06:54:08;;;;;;;1.90;0.50;;;7.80;96.30;;;;;;4993671;28;20494;-81
2021/03/13 06:56:37;;;;;;;3.50;1.03;;;7.80;96.50;;;;;;4992505;28;20495;-82
2021/03/13 06:59:23;;;;;;;3.72;0.73;;;7.90;96.10;;;;;;4989182;28;20037;-81
2021/03/13 07:02:11;;;;;;;5.33;1.93;;;7.90;95.80;;;;;;4992080;28;20086;-81
2021/03/13 07:04:44;;;;;;;6.20;1.03;;;7.90;96.10;;;;;;4993466;28;20428;-81
2021/03/13 07:07:29;;;;;;;3.37;0.70;;;7.90;96.30;;;;;;4992474;28;20352;-81
2021/03/13 07:09:57;;;;;;;4.80;1.40;;;7.90;95.90;;;;;;4994817;28;20402;-81
2021/03/13 07:12:24;;;;;;;1.97;0.87;;;7.90;95.90;;;;;;4995216;28;20061;-81
2021/03/13 07:14:50;;;;;;;2.43;0.60;;;8.00;95.70;;;;;;4997053;28;20427;-81
2021/03/13 07:17:16;;;;;;;3.33;0.77;;;8.00;95.60;;;;;;4994628;28;20395;-83
2021/03/13 07:19:42;;;;;;;1.40;0.60;;;8.00;96.00;;;;;;4993351;28;20031;-82
2021/03/13 07:22:11;;;;;;;2.47;0.90;;;8.00;96.10;;;;;;4994592;28;20108;-83
2021/03/13 07:24:40;;;;;;;4.50;1.60;;;8.00;96.50;;;;;;4996468;28;20026;-83
2021/03/13 07:27:10;;;;;;;4.57;1.70;;;7.80;97.40;;;;;;4995461;28;20415;-82
2021/03/13 07:33:02;;;;;;;;;;;7.60;96.30;;;;;;4996967;28;20041;-86
2021/03/13 07:35:32;;;;;;;3.80;1.10;;;7.60;96.20;;;;;;5028921;28;19912;-83
2021/03/13 07:38:02;;;;;;;5.33;1.63;;;7.60;97.00;;;;;;4995019;28;20083;-83
2021/03/13 07:40:28;;;;;;;7.53;3.53;;;7.50;95.70;;;;;;4995224;28;20022;-83
2021/03/13 07:42:55;;;;;;;6.87;2.30;;;7.60;95.10;;;;;;4976918;28;20073;-81
2021/03/13 07:45:21;;;;;;;5.87;2.60;;;7.60;94.00;;;;;;4982116;28;20467;-81
2021/03/13 07:47:48;;;;;;;6.20;2.43;;;7.60;93.80;;;;;;4972991;28;20039;-81
2021/03/13 07:50:15;;;;;;;5.73;1.50;;;7.60;93.40;;;;;;4974205;28;20390;-81
2021/03/13 07:52:42;;;;;;;7.83;1.93;;;7.60;92.80;;;;;;4993039;28;20062;-80
2021/03/13 07:55:14;;;;;;;7.30;1.97;;;7.70;93.80;;;;;;4992441;28;20097;-80
2021/03/13 07:57:42;;;;;;;4.50;1.90;;;8.10;95.00;;;;;;4993497;28;20090;-81
2021/03/13 08:00:09;;;;;;;5.65;1.52;;;8.50;94.70;;;;;;4992275;28;20908;-80
2021/03/13 08:02:39;;;;;;;4.53;1.60;;;8.60;92.60;;;;;;4991185;28;20162;-80
2021/03/13 08:05:15;;;;;;;4.50;1.40;;;8.60;92.00;;;;;;4992399;28;20026;-80
2021/03/13 08:08:03;;;;;;;3.07;0.90;;;8.60;91.80;;;;;;4991614;28;20053;-80
2021/03/13 08:10:50;;;;;;;3.60;1.00;;;8.80;90.60;;;;;;4990569;28;20030;-80
2021/03/13 08:13:28;;;;;;;4.07;0.90;;;8.90;90.60;;;;;;4992619;28;20034;-80
2021/03/13 08:16:03;;;;;;;1.67;0.83;;;8.90;90.00;;;;;;4991277;28;20765;-81
2021/03/13 08:18:50;;;;;;;3.30;0.80;;;8.50;88.20;;;;;;4993973;28;20026;-81
2021/03/13 08:21:21;;;;;;;3.67;1.17;;;8.20;90.10;;;;;;4975833;28;20038;-81
2021/03/13 08:23:50;;;;;;;4.83;1.00;;;8.10;90.20;;;;;;4992612;28;20049;-81
2021/03/13 08:26:17;;;;;;;3.38;1.05;;;8.00;89.90;;;;;;4994030;28;20022;-81
2021/03/13 08:28:46;;;;;;;3.43;0.93;;;7.90;90.40;;;;;;4993578;28;20458;-81
2021/03/13 08:33:50;;;;;;;3.57;0.70;;;7.80;90.80;;;;;;4995301;28;20180;-83
2021/03/13 08:36:16;;;;;;;4.20;0.70;;;7.80;90.80;;;;;;4991396;28;20093;-81
2021/03/13 08:38:59;;;;;;;4.17;1.10;;;7.80;91.00;;;;;;4991910;28;20029;-82
2021/03/13 08:41:43;;;;;;;2.63;0.70;;;7.80;90.80;;;;;;4992248;28;20026;-81
2021/03/13 08:44:34;;;;;;;4.00;0.80;;;7.80;90.90;;;;;;4996732;28;20034;-81
2021/03/13 08:47:05;;;;;;;2.93;1.10;;;7.80;90.70;;;;;;4995470;28;20030;-81
2021/03/13 08:49:31;;;;;;;6.63;1.00;;;7.80;90.80;;;;;;4995924;28;20030;-81
2021/03/13 08:52:08;;;;;;;7.63;1.30;;;7.80;90.70;;;;;;4995646;28;20525;-81
2021/03/13 08:54:37;;;;;;;4.80;1.10;;;7.80;90.70;;;;;;4996718;28;20462;-81
2021/03/13 08:57:13;;;;;;;4.22;1.17;;;7.80;90.50;;;;;;4995812;28;20018;-81
2021/03/13 08:59:41;;;;;;;3.37;0.80;;;7.80;90.50;;;;;;4996567;28;20429;-82
2021/03/13 09:02:17;;;;;;;6.93;1.40;;;7.80;90.10;;;;;;4994591;28;20116;-83
2021/03/13 09:04:45;;;;;;;4.97;0.80;;;7.80;90.00;;;;;;4994272;28;20030;-81
2021/03/13 09:07:13;;;;;;;5.00;1.13;;;7.80;90.40;;;;;;4994474;28;20417;-82
2021/03/13 09:09:41;;;;;;;6.33;0.97;;;7.80;90.40;;;;;;4993610;28;20133;-82
2021/03/13 09:12:10;;;;;;;5.13;1.30;;;7.80;90.20;;;;;;4994120;28;20451;-82
2021/03/13 09:14:42;;;;;;;5.88;1.13;;;7.80;90.50;;;;;;4994638;28;20022;-82
2021/03/13 09:17:15;;;;;;;4.17;1.13;;;7.90;90.60;;;;;;4994269;28;20035;-83
2021/03/13 09:19:43;;;;;;;5.10;1.10;;;7.90;90.80;;;;;;4995671;28;20534;-84
2021/03/13 09:22:11;;;;;;;5.97;1.47;;;7.90;90.90;;;;;;4995371;28;20467;-82
2021/03/13 09:24:37;;;;;;;5.37;1.20;;;7.90;91.00;;;;;;4995829;28;20056;-82
2021/03/13 09:27:04;;;;;;;5.43;1.93;;;7.90;90.80;;;;;;4997169;28;20018;-82
2021/03/13 09:29:31;;;;;;;7.00;1.23;;;8.00;90.80;;;;;;4996876;28;20022;-83
2021/03/13 09:32:00;;;;;;;4.80;1.23;;;8.00;91.00;;;;;;4998200;28;20046;-83
2021/03/13 09:34:27;;;;;;;5.10;1.15;;;7.90;90.80;;;;;;4997435;28;20076;-83
2021/03/13 09:36:53;;;;;;;6.03;1.30;;;8.00;91.00;;;;;;4997180;28;20646;-85
2021/03/13 09:39:25;;;;;;;9.57;1.43;;;8.00;90.80;;;;;;4994455;28;20052;-83
2021/03/13 09:42:12;;;;;;;10.03;1.70;;;8.10;90.60;;;;;;4997366;28;20046;-84
2021/03/13 09:44:47;;;;;;;5.47;1.30;;;8.10;90.30;;;;;;4996174;28;20104;-83
2021/03/13 09:47:18;;;;;;;13.03;1.83;;;8.10;90.70;;;;;;4996232;28;20042;-82
2021/03/13 09:50:08;;;;;;;7.63;1.50;;;8.10;90.80;;;;;;4995850;28;20030;-82
2021/03/13 09:52:36;;;;;;;9.30;2.33;;;8.10;91.00;;;;;;4992775;28;20116;-83
2021/03/13 09:55:18;;;;;;;8.13;1.60;;;8.00;91.40;;;;;;4994475;28;20022;-84
2021/03/13 09:57:46;;;;;;;13.10;1.80;;;8.00;91.20;;;;;;4997248;28;20022;-83
2021/03/13 10:00:17;;;;;;;10.10;1.73;;;7.90;91.10;;;;;;4994903;28;20026;-83
2021/03/13 10:02:43;;;;;;;6.73;1.73;;;7.90;90.90;;;;;;4997015;28;20082;-83
2021/03/13 10:05:12;;;;;;;11.63;1.90;;;8.00;90.40;;;;;;4995412;28;20112;-84
2021/03/13 10:07:40;;;;;;;10.40;1.90;;;8.00;90.40;;;;;;4997753;28;20022;-84
2021/03/13 10:10:08;;;;;;;8.87;1.83;;;8.10;89.00;;;;;;4993427;28;20034;-84
2021/03/13 10:12:41;;;;;;;7.43;1.50;;;8.20;89.40;;;;;;4996016;28;20042;-83
2021/03/13 10:15:18;;;;;;;12.20;1.70;;;8.30;88.80;;;;;;4994276;28;20030;-84
2021/03/13 10:17:56;;;;;;;7.03;1.40;;;8.30;87.50;;;;;;4994683;28;20208;-84
2021/03/13 10:20:23;;;;;;;12.17;1.73;;;8.40;87.80;;;;;;4994694;28;20078;-84
2021/03/13 10:22:49;;;;;;;12.27;2.03;;;8.50;86.60;;;;;;4993357;28;20034;-82
2021/03/13 10:25:15;;;;;;;8.97;1.20;;;8.50;86.30;;;;;;4994741;28;20065;-82
2021/03/13 10:27:41;;;;;;;7.80;1.80;;;8.50;85.70;;;;;;5002972;28;20026;-83
2021/03/13 10:30:09;;;;;;;7.63;1.70;;;8.50;85.70;;;;;;5000184;28;20468;-84
2021/03/13 10:32:37;;;;;;;10.70;2.00;;;8.50;86.10;;;;;;5001203;28;20073;-83
2021/03/13 10:35:05;;;;;;;10.70;1.93;;;8.50;85.60;;;;;;5000063;28;20054;-83
2021/03/13 10:37:42;;;;;;;10.95;2.15;;;8.50;86.60;;;;;;4999973;28;20078;-84
2021/03/13 10:40:28;;;;;;;12.17;1.73;;;8.50;85.50;;;;;;4991173;28;20034;-83
2021/03/13 10:43:14;;;;;;;9.90;1.70;;;8.60;85.10;;;;;;4993770;28;20094;-83
2021/03/13 10:45:56;;;;;;;9.47;1.50;;;8.60;83.30;;;;;;4994036;28;20452;-83
2021/03/13 10:48:22;;;;;;;13.67;2.70;;;8.60;84.20;;;;;;4996250;28;20026;-82
2021/03/13 10:50:48;;;;;;;14.70;2.33;;;8.60;84.00;;;;;;4992073;28;20430;-82
2021/03/13 10:53:36;;;;;;;15.50;2.17;;;8.80;83.40;;;;;;4995293;28;20069;-81
2021/03/13 10:56:12;;;;;;;11.27;2.17;;;8.80;83.60;;;;;;4994952;28;20062;-81
2021/03/13 10:58:48;;;;;;;9.20;2.10;;;8.90;80.40;;;;;;4995050;28;20072;-81
2021/03/13 11:01:14;;;;;;;12.47;2.00;;;8.90;80.00;;;;;;4995210;28;20030;-82
2021/03/13 11:03:45;;;;;;;13.53;2.50;;;8.90;80.20;;;;;;4988250;28;20110;-86
2021/03/13 11:06:12;;;;;;;13.97;2.10;;;8.80;80.30;;;;;;4971026;28;20054;-85
2021/03/13 11:08:38;;;;;;;15.37;3.17;;;8.80;79.60;;;;;;4974530;28;20026;-84
2021/03/13 11:11:04;;;;;;;13.63;2.37;;;8.80;86.70;;;;;;4991707;28;20568;-84
2021/03/13 11:13:30;;;;;;;11.47;2.00;;;8.10;91.40;;;;;;4993657;28;20081;-84
2021/03/13 11:15:56;;;;;;;14.73;2.20;;;8.00;92.30;;;;;;4994880;28;20027;-85
2021/03/13 11:18:22;;;;;;;17.87;2.57;;;8.00;92.90;;;;;;4992947;28;20018;-84
2021/03/13 11:20:48;;;;;;;14.43;2.80;;;8.10;92.80;;;;;;4992827;28;20594;-83
2021/03/13 11:23:15;;;;;;;17.00;2.97;;;8.30;93.90;;;;;;4994071;28;20099;-83
2021/03/13 11:25:41;;;;;;;12.73;2.40;;;8.30;93.40;;;;;;4995371;28;20050;-81
2021/03/13 11:28:07;;;;;;;13.00;2.07;;;8.50;92.80;;;;;;5001160;28;20045;-82
2021/03/13 11:30:34;;;;;;;18.57;3.27;;;8.50;91.70;;;;;;4997409;28;20031;-83
2021/03/13 11:32:59;;;;;;;16.20;3.00;;;8.70;90.90;;;;;;4997508;28;20036;-84
2021/03/13 11:35:25;;;;;;;18.63;2.70;;;8.70;90.60;;;;;;4999559;28;20208;-82
2021/03/13 11:37:52;;;;;;;11.70;2.40;;;8.90;88.10;;;;;;5000231;28;20121;-82
2021/03/13 11:40:20;;;;;;;9.03;2.10;;;9.00;86.90;;;;;;5000178;28;20060;-82
2021/03/13 11:42:50;;;;;;;18.80;3.20;;;9.10;85.60;;;;;;4995349;28;20460;-83
2021/03/13 11:45:16;;;;;;;17.23;2.70;;;9.10;81.60;;;;;;4993902;28;20026;-85
2021/03/13 11:47:42;;;;;;;12.13;2.43;;;9.10;80.20;;;;;;4996450;28;20078;-82
2021/03/13 11:50:12;;;;;;;12.13;1.90;;;9.00;80.40;;;;;;4994897;28;20079;-82
2021/03/13 11:52:38;;;;;;;12.63;2.30;;;9.00;81.50;;;;;;4994912;28;20080;-84
2021/03/13 11:55:09;;;;;;;10.27;2.50;;;8.80;83.40;;;;;;4995614;28;20030;-83
2021/03/13 11:57:36;;;;;;;15.27;3.03;;;8.80;85.50;;;;;;4995163;28;20463;-82
2021/03/13 12:00:06;;;;;;;13.13;2.47;;;8.80;83.40;;;;;;4995990;28;20470;-83
2021/03/13 12:02:32;;;;;;;17.63;2.93;;;8.90;80.00;;;;;;4996486;28;20046;-82
2021/03/13 12:04:58;;;;;;;18.23;2.47;;;9.10;85.30;;;;;;4999185;28;20058;-81
2021/03/13 12:07:24;;;;;;;9.67;2.03;;;9.20;81.90;;;;;;4998819;28;20023;-81
2021/03/13 12:09:49;;;;;;;14.07;2.77;;;9.20;83.40;;;;;;4999913;28;20454;-82
2021/03/13 12:12:15;;;;;;;10.87;2.07;;;9.40;82.40;;;;;;4997350;28;20022;-82
2021/03/13 12:14:43;;;;;;;13.00;2.40;;;9.50;81.50;;;;;;4999043;28;20050;-82
2021/03/13 12:17:11;;;;;;;11.73;2.03;;;9.50;81.00;;;;;;5000386;28;20033;-82
2021/03/13 12:19:38;;;;;;;9.63;1.73;;;9.60;81.80;;;;;;5004891;28;20026;-82
2021/03/13 12:22:04;;;;;;;12.63;2.90;;;9.70;82.30;;;;;;5004905;28;20520;-83
2021/03/13 12:24:30;;;;;;;12.10;2.60;;;9.80;82.30;;;;;;5005814;28;20034;-81
2021/03/13 12:26:55;;;;;;;17.23;2.80;;;9.80;81.70;;;;;;5034707;22;20042;-78
2021/03/13 12:29:21;;;;;;;12.50;2.47;;;9.80;82.70;;;;;;5028432;28;20447;-79
2021/03/13 12:31:47;;;;;;;11.67;2.33;;;9.60;81.40;;;;;;5020488;28;20034;-77
2021/03/13 12:34:13;;;;;;;16.20;2.23;;;9.60;81.80;;;;;;5021809;28;20036;-79
2021/03/13 12:36:39;;;;;;;10.77;2.10;;;9.40;86.90;;;;;;5014361;28;20038;-82
2021/03/13 12:39:22;;;;;;;11.03;1.60;;;8.70;92.50;;;;;;5008606;28;20045;-81
2021/03/13 12:41:48;;;;;;;9.50;1.97;;;8.40;94.00;;;;;;5010327;28;20050;-80
2021/03/13 12:44:14;;;;;;;15.30;2.57;;;8.10;94.40;;;;;;5008204;28;20055;-81
2021/03/13 12:46:41;;;;;;;10.00;2.07;;;7.90;94.90;;;;;;5011066;28;20106;-83
2021/03/13 12:49:09;;;;;;;8.43;1.67;;;7.80;94.10;;;;;;5030391;28;20048;-83
2021/03/13 12:51:34;;;;;;;8.27;1.50;;;7.80;94.40;;;;;;5029038;28;20391;-84
2021/03/13 12:54:00;;;;;;;9.90;1.53;;;7.80;94.20;;;;;;5028617;28;20026;-81
2021/03/13 12:56:26;;;;;;;8.80;1.43;;;7.80;93.30;;;;;;5029542;28;20084;-80
2021/03/13 12:58:52;;;;;;;13.03;1.93;;;7.70;94.10;;;;;;5028301;28;20037;-81
2021/03/13 13:01:17;;;;;;;8.03;1.73;;;7.60;93.90;;;;;;5028481;28;20034;-81
2021/03/13 13:03:43;;;;;;;14.87;1.87;;;7.50;94.40;;;;;;5029635;28;20037;-83
2021/03/13 13:06:09;;;;;;;9.37;1.80;;;7.50;94.80;;;;;;5030508;28;20078;-82
2021/03/13 13:08:34;;;;;;;10.07;2.03;;;7.40;95.30;;;;;;5031149;28;20030;-81
2021/03/13 13:11:00;;;;;;;13.50;2.10;;;7.40;94.90;;;;;;5028540;28;20030;-81
2021/03/13 13:13:26;;;;;;;9.83;1.60;;;7.40;94.90;;;;;;5024254;28;20030;-80